createdAt,value
2016-06-08T00:00:09.681Z,14.6
2016-06-08T00:00:19.683Z,14.6
2016-06-08T00:00:29.714Z,14.6
2016-06-08T00:00:39.683Z,14.6
2016-06-08T00:00:49.745Z,14.6
2016-06-08T00:00:59.683Z,14.6
2016-06-08T00:01:09.683Z,14.6
2016-06-08T00:01:19.703Z,14.6
2016-06-08T00:01:29.687Z,14.6
2016-06-08T00:01:39.671Z,14.6
2016-06-08T00:01:49.671Z,14.6
2016-06-08T00:01:59.718Z,14.6
2016-06-08T00:02:09.703Z,14.6
2016-06-08T00:02:19.720Z,14.6
2016-06-08T00:02:29.751Z,14.6
2016-06-08T00:02:39.673Z,14.6
2016-06-08T00:02:49.658Z,14.6
2016-06-08T00:02:59.658Z,14.6
2016-06-08T00:03:09.658Z,14.6
2016-06-08T00:03:19.675Z,14.6
2016-06-08T00:03:29.738Z,14.6
2016-06-08T00:03:39.675Z,14.6
2016-06-08T00:03:49.660Z,14.6
2016-06-08T00:04:00.066Z,14.6
2016-06-08T00:04:09.675Z,14.6
2016-06-08T00:04:19.631Z,14.6
2016-06-08T00:04:29.710Z,14.6
2016-06-08T00:04:39.631Z,14.6
2016-06-08T00:04:49.616Z,14.6
2016-06-08T00:04:59.616Z,14.6
2016-06-08T00:05:09.647Z,14.6
2016-06-08T00:05:19.634Z,14.6
2016-06-08T00:05:29.619Z,14.6
2016-06-08T00:05:39.634Z,14.5
2016-06-08T00:05:49.603Z,14.5
2016-06-08T00:05:59.603Z,14.5
2016-06-08T00:06:09.619Z,14.5
2016-06-08T00:06:19.606Z,14.5
2016-06-08T00:06:29.622Z,14.5
2016-06-08T00:06:39.591Z,14.5
2016-06-08T00:06:49.637Z,14.5
2016-06-08T00:06:59.591Z,14.5
2016-06-08T00:07:09.637Z,14.5
2016-06-08T00:07:19.608Z,14.5
2016-06-08T00:07:29.593Z,14.5
2016-06-08T00:07:39.608Z,14.5
2016-06-08T00:07:49.608Z,14.5
2016-06-08T00:07:59.577Z,14.6
2016-06-08T00:08:09.577Z,14.6
2016-06-08T00:08:19.580Z,14.6
2016-06-08T00:08:29.580Z,14.6
2016-06-08T00:08:39.564Z,14.6
2016-06-08T00:08:49.580Z,14.6
2016-06-08T00:08:59.564Z,14.6
2016-06-08T00:09:09.564Z,14.6
2016-06-08T00:09:19.552Z,14.6
2016-06-08T00:09:29.552Z,14.6
2016-06-08T00:09:39.552Z,14.6
2016-06-08T00:09:49.552Z,14.6
2016-06-08T00:09:59.552Z,14.6
2016-06-08T00:10:09.552Z,14.5
2016-06-08T00:10:19.554Z,14.5
2016-06-08T00:10:29.554Z,14.5
2016-06-08T00:10:39.538Z,14.5
2016-06-08T00:10:49.554Z,14.5
2016-06-08T00:10:59.554Z,14.5
2016-06-08T00:11:09.772Z,14.5
2016-06-08T00:11:19.854Z,14.5
2016-06-08T00:11:29.572Z,14.5
2016-06-08T00:11:39.432Z,14.5
2016-06-08T00:11:49.994Z,14.5
2016-06-08T00:11:59.541Z,14.5
2016-06-08T00:12:09.541Z,14.5
2016-06-08T00:12:19.512Z,14.5
2016-06-08T00:12:29.512Z,14.5
2016-06-08T00:12:39.512Z,14.5
2016-06-08T00:12:49.527Z,14.5
2016-06-08T00:12:59.512Z,14.5
2016-06-08T00:13:09.512Z,14.5
2016-06-08T00:13:19.515Z,14.5
2016-06-08T00:13:29.499Z,14.5
2016-06-08T00:13:39.499Z,14.5
2016-06-08T00:13:49.499Z,14.5
2016-06-08T00:14:00.874Z,14.5
2016-06-08T00:14:13.515Z,14.5
2016-06-08T00:14:22.705Z,14.5
2016-06-08T00:14:32.643Z,14.5
2016-06-08T00:14:42.643Z,14.5
2016-06-08T00:14:52.658Z,14.6
2016-06-08T00:15:02.705Z,14.5
2016-06-08T00:15:12.658Z,14.5
2016-06-08T00:15:22.661Z,14.5
2016-06-08T00:15:32.646Z,14.6
2016-06-08T00:15:42.646Z,14.6
2016-06-08T00:15:52.630Z,14.6
2016-06-08T00:16:02.630Z,14.6
2016-06-08T00:16:12.630Z,14.6
2016-06-08T00:16:22.633Z,14.6
2016-06-08T00:16:32.618Z,14.6
2016-06-08T00:16:42.618Z,14.6
2016-06-08T00:16:52.618Z,14.6
2016-06-08T00:17:02.618Z,14.6
2016-06-08T00:17:12.618Z,14.6
2016-06-08T00:17:22.604Z,14.6
2016-06-08T00:17:32.620Z,14.6
2016-06-08T00:17:42.620Z,14.6
2016-06-08T00:17:52.604Z,14.6
2016-06-08T00:18:02.604Z,14.6
2016-06-08T00:18:12.604Z,14.6
2016-06-08T00:18:22.607Z,14.6
2016-06-08T00:18:32.591Z,14.6
2016-06-08T00:18:42.638Z,14.6
2016-06-08T00:18:52.607Z,14.6
2016-06-08T00:19:02.576Z,14.6
2016-06-08T00:19:12.576Z,14.6
2016-06-08T00:19:23.687Z,14.6
2016-06-08T00:19:33.437Z,14.6
2016-06-08T00:19:44.500Z,14.6
2016-06-08T00:19:54.265Z,14.6
2016-06-08T00:20:04.218Z,14.6
2016-06-08T00:20:14.062Z,14.6
2016-06-08T00:20:24.206Z,14.6
2016-06-08T00:20:34.206Z,14.6
2016-06-08T00:20:44.206Z,14.6
2016-06-08T00:20:54.206Z,14.6
2016-06-08T00:21:04.190Z,14.6
2016-06-08T00:21:14.190Z,14.6
2016-06-08T00:21:24.209Z,14.6
2016-06-08T00:21:34.193Z,14.6
2016-06-08T00:21:44.193Z,14.6
2016-06-08T00:21:54.193Z,14.6
2016-06-08T00:22:04.193Z,14.6
2016-06-08T00:22:14.177Z,14.6
2016-06-08T00:22:24.180Z,14.6
2016-06-08T00:22:34.180Z,14.6
2016-06-08T00:22:44.165Z,14.6
2016-06-08T00:22:54.493Z,14.6
2016-06-08T00:23:04.180Z,14.6
2016-06-08T00:23:14.165Z,14.6
2016-06-08T00:23:24.182Z,14.6
2016-06-08T00:23:34.167Z,14.6
2016-06-08T00:23:44.182Z,14.6
2016-06-08T00:23:54.151Z,14.6
2016-06-08T00:24:04.151Z,14.6
2016-06-08T00:24:14.167Z,14.6
2016-06-08T00:24:24.153Z,14.5
2016-06-08T00:24:34.153Z,14.6
2016-06-08T00:24:44.169Z,14.6
2016-06-08T00:24:54.138Z,14.6
2016-06-08T00:25:04.138Z,14.5
2016-06-08T00:25:14.138Z,14.5
2016-06-08T00:25:24.142Z,14.5
2016-06-08T00:25:34.142Z,14.5
2016-06-08T00:25:44.142Z,14.5
2016-06-08T00:25:54.173Z,14.5
2016-06-08T00:26:04.126Z,14.5
2016-06-08T00:26:13.985Z,14.5
2016-06-08T00:26:24.128Z,14.5
2016-06-08T00:26:34.190Z,14.5
2016-06-08T00:26:43.972Z,14.5
2016-06-08T00:26:54.769Z,14.5
2016-06-08T00:27:04.128Z,14.5
2016-06-08T00:27:14.753Z,14.5
2016-06-08T00:27:24.131Z,14.5
2016-06-08T00:27:34.131Z,14.5
2016-06-08T00:27:44.100Z,14.5
2016-06-08T00:27:54.115Z,14.5
2016-06-08T00:28:04.100Z,14.5
2016-06-08T00:28:14.115Z,14.4
2016-06-08T00:28:24.117Z,14.4
2016-06-08T00:28:34.117Z,14.4
2016-06-08T00:28:44.086Z,14.4
2016-06-08T00:28:54.102Z,14.4
2016-06-08T00:29:04.086Z,14.4
2016-06-08T00:29:14.086Z,14.4
2016-06-08T00:29:24.089Z,14.5
2016-06-08T00:29:34.073Z,14.4
2016-06-08T00:29:44.089Z,14.4
2016-06-08T00:29:54.105Z,14.4
2016-06-08T00:30:04.120Z,14.5
2016-06-08T00:30:14.073Z,14.4
2016-06-08T00:30:24.076Z,14.4
2016-06-08T00:30:34.076Z,14.4
2016-06-08T00:30:44.061Z,14.4
2016-06-08T00:30:54.108Z,14.4
2016-06-08T00:31:04.061Z,14.4
2016-06-08T00:31:14.108Z,14.4
2016-06-08T00:31:23.908Z,14.4
2016-06-08T00:31:34.048Z,14.4
2016-06-08T00:31:44.064Z,14.4
2016-06-08T00:31:54.079Z,14.4
2016-06-08T00:32:04.048Z,14.4
2016-06-08T00:32:14.033Z,14.4
2016-06-08T00:32:24.051Z,14.4
2016-06-08T00:32:34.036Z,14.4
2016-06-08T00:32:44.067Z,14.4
2016-06-08T00:32:54.051Z,14.4
2016-06-08T00:33:04.020Z,14.4
2016-06-08T00:33:14.036Z,14.4
2016-06-08T00:33:24.038Z,14.4
2016-06-08T00:33:34.038Z,14.4
2016-06-08T00:33:44.022Z,14.3
2016-06-08T00:33:54.038Z,14.3
2016-06-08T00:34:04.038Z,14.3
2016-06-08T00:34:14.006Z,14.3
2016-06-08T00:34:24.009Z,14.3
2016-06-08T00:34:34.009Z,14.3
2016-06-08T00:34:43.994Z,14.3
2016-06-08T00:34:54.025Z,14.3
2016-06-08T00:35:03.994Z,14.3
2016-06-08T00:35:14.009Z,14.3
2016-06-08T00:35:23.996Z,14.3
2016-06-08T00:35:33.996Z,14.3
2016-06-08T00:35:44.027Z,14.3
2016-06-08T00:35:53.996Z,14.3
2016-06-08T00:36:03.980Z,14.3
2016-06-08T00:36:13.980Z,14.3
2016-06-08T00:36:23.983Z,14.3
2016-06-08T00:36:33.983Z,14.3
2016-06-08T00:36:43.999Z,14.3
2016-06-08T00:36:53.983Z,14.3
2016-06-08T00:37:03.967Z,14.3
2016-06-08T00:37:13.967Z,14.3
2016-06-08T00:37:24.002Z,14.2
2016-06-08T00:37:33.970Z,14.2
2016-06-08T00:37:43.955Z,14.2
2016-06-08T00:37:53.955Z,14.3
2016-06-08T00:38:03.955Z,14.3
2016-06-08T00:38:14.002Z,14.2
2016-06-08T00:38:23.972Z,14.3
2016-06-08T00:38:33.957Z,14.3
2016-06-08T00:38:43.957Z,14.3
2016-06-08T00:38:53.941Z,14.3
2016-06-08T00:39:03.941Z,14.3
2016-06-08T00:39:13.957Z,14.3
2016-06-08T00:39:23.945Z,14.3
2016-06-08T00:39:33.961Z,14.3
2016-06-08T00:39:43.992Z,14.3
2016-06-08T00:39:53.930Z,14.3
2016-06-08T00:40:03.945Z,14.3
2016-06-08T00:40:13.961Z,14.3
2016-06-08T00:40:23.932Z,14.3
2016-06-08T00:40:33.932Z,14.3
2016-06-08T00:40:43.916Z,14.3
2016-06-08T00:40:53.916Z,14.3
2016-06-08T00:41:04.228Z,14.3
2016-06-08T00:41:15.416Z,14.3
2016-06-08T00:41:28.528Z,14.3
2016-06-08T00:41:38.622Z,14.2
2016-06-08T00:41:47.810Z,14.3
2016-06-08T00:41:58.653Z,14.3
2016-06-08T00:42:08.122Z,14.3
2016-06-08T00:42:18.031Z,14.3
2016-06-08T00:42:27.953Z,14.3
2016-06-08T00:42:38.156Z,14.3
2016-06-08T00:42:47.969Z,14.3
2016-06-08T00:42:57.953Z,14.3
2016-06-08T00:43:07.938Z,14.3
2016-06-08T00:43:17.940Z,14.3
2016-06-08T00:43:27.940Z,14.3
2016-06-08T00:43:37.940Z,14.3
2016-06-08T00:43:47.940Z,14.2
2016-06-08T00:43:58.518Z,14.2
2016-06-08T00:44:07.924Z,14.2
2016-06-08T00:44:17.927Z,14.2
2016-06-08T00:44:27.927Z,14.2
2016-06-08T00:44:37.927Z,14.2
2016-06-08T00:44:47.974Z,14.2
2016-06-08T00:44:57.958Z,14.2
2016-06-08T00:45:07.911Z,14.2
2016-06-08T00:45:17.960Z,14.2
2016-06-08T00:45:27.913Z,14.2
2016-06-08T00:45:37.913Z,14.3
2016-06-08T00:45:47.929Z,14.3
2016-06-08T00:45:57.898Z,14.3
2016-06-08T00:46:07.929Z,14.3
2016-06-08T00:46:17.916Z,14.3
2016-06-08T00:46:27.901Z,14.3
2016-06-08T00:46:37.885Z,14.3
2016-06-08T00:46:47.744Z,14.3
2016-06-08T00:46:57.901Z,14.3
2016-06-08T00:47:07.916Z,14.3
2016-06-08T00:47:17.919Z,14.3
2016-06-08T00:47:27.888Z,14.3
2016-06-08T00:47:37.872Z,14.3
2016-06-08T00:47:47.872Z,14.3
2016-06-08T00:47:57.872Z,14.3
2016-06-08T00:48:07.888Z,14.3
2016-06-08T00:48:17.875Z,14.3
2016-06-08T00:48:27.907Z,14.3
2016-06-08T00:48:37.875Z,14.3
2016-06-08T00:48:47.860Z,14.3
2016-06-08T00:48:57.860Z,14.3
2016-06-08T00:49:07.844Z,14.3
2016-06-08T00:49:18.002Z,14.3
2016-06-08T00:49:27.846Z,14.3
2016-06-08T00:49:37.846Z,14.3
2016-06-08T00:49:47.690Z,14.3
2016-06-08T00:49:57.846Z,14.2
2016-06-08T00:50:07.862Z,14.2
2016-06-08T00:50:17.849Z,14.3
2016-06-08T00:50:27.849Z,14.3
2016-06-08T00:50:37.834Z,14.3
2016-06-08T00:50:47.834Z,14.3
2016-06-08T00:50:57.834Z,14.3
2016-06-08T00:51:07.818Z,14.3
2016-06-08T00:51:17.820Z,14.3
2016-06-08T00:51:27.820Z,14.2
2016-06-08T00:51:37.820Z,14.2
2016-06-08T00:51:47.820Z,14.2
2016-06-08T00:51:57.820Z,14.2
2016-06-08T00:52:07.804Z,14.2
2016-06-08T00:52:17.823Z,14.2
2016-06-08T00:52:27.807Z,14.2
2016-06-08T00:52:37.807Z,14.2
2016-06-08T00:52:47.823Z,14.2
2016-06-08T00:52:57.807Z,14.2
2016-06-08T00:53:07.807Z,14.2
2016-06-08T00:53:17.810Z,14.2
2016-06-08T00:53:27.795Z,14.2
2016-06-08T00:53:37.826Z,14.2
2016-06-08T00:53:47.795Z,14.2
2016-06-08T00:53:57.779Z,14.2
2016-06-08T00:54:07.795Z,14.2
2016-06-08T00:54:17.797Z,14.2
2016-06-08T00:54:27.781Z,14.2
2016-06-08T00:54:37.781Z,14.2
2016-06-08T00:54:47.781Z,14.2
2016-06-08T00:54:57.765Z,14.2
2016-06-08T00:55:07.765Z,14.2
2016-06-08T00:55:17.769Z,14.2
2016-06-08T00:55:27.801Z,14.2
2016-06-08T00:55:37.785Z,14.2
2016-06-08T00:55:47.754Z,14.2
2016-06-08T00:55:58.457Z,14.2
2016-06-08T00:56:08.035Z,14.2
2016-06-08T00:56:18.178Z,14.1
2016-06-08T00:56:27.771Z,14.2
2016-06-08T00:56:38.146Z,14.2
2016-06-08T00:56:47.771Z,14.2
2016-06-08T00:56:57.756Z,14.2
2016-06-08T00:57:07.756Z,14.2
2016-06-08T00:57:17.821Z,14.2
2016-06-08T00:57:27.743Z,14.2
2016-06-08T00:57:37.743Z,14.2
2016-06-08T00:57:47.728Z,14.2
2016-06-08T00:57:57.759Z,14.1
2016-06-08T00:58:07.759Z,14.2
2016-06-08T00:58:17.762Z,14.1
2016-06-08T00:58:27.746Z,14.1
2016-06-08T00:58:37.746Z,14.1
2016-06-08T00:58:47.715Z,14.1
2016-06-08T00:58:57.746Z,14.2
2016-06-08T00:59:07.559Z,14.1
2016-06-08T00:59:17.717Z,14.1
2016-06-08T00:59:27.733Z,14.1
2016-06-08T00:59:37.717Z,14.1
2016-06-08T00:59:47.733Z,14.1
2016-06-08T00:59:57.717Z,14.1
2016-06-08T01:00:07.951Z,14.1
2016-06-08T01:00:19.267Z,14.1
2016-06-08T01:00:30.595Z,14.1
2016-06-08T01:00:39.876Z,14.1
2016-06-08T01:00:49.892Z,14.1
2016-06-08T01:00:59.892Z,14.1
2016-06-08T01:01:09.876Z,14.1
2016-06-08T01:01:19.878Z,14.1
2016-06-08T01:01:29.863Z,14.1
2016-06-08T01:01:39.863Z,14.1
2016-06-08T01:01:49.863Z,14.1
2016-06-08T01:01:59.863Z,14.1
2016-06-08T01:02:09.878Z,14.1
2016-06-08T01:02:19.866Z,14.1
2016-06-08T01:02:29.897Z,14.1
2016-06-08T01:02:39.866Z,14.1
2016-06-08T01:02:49.709Z,14.1
2016-06-08T01:02:59.850Z,14.1
2016-06-08T01:03:09.850Z,14
2016-06-08T01:03:19.853Z,14
2016-06-08T01:03:29.853Z,14
2016-06-08T01:03:39.900Z,14
2016-06-08T01:03:49.837Z,14
2016-06-08T01:03:59.853Z,14
2016-06-08T01:04:09.837Z,14
2016-06-08T01:04:19.856Z,14
2016-06-08T01:04:29.856Z,14
2016-06-08T01:04:39.825Z,14
2016-06-08T01:04:49.825Z,14
2016-06-08T01:04:59.856Z,14
2016-06-08T01:05:09.840Z,14
2016-06-08T01:05:19.686Z,13.9
2016-06-08T01:05:29.811Z,14
2016-06-08T01:05:39.858Z,13.9
2016-06-08T01:05:49.827Z,13.9
2016-06-08T01:05:59.811Z,14
2016-06-08T01:06:09.811Z,13.9
2016-06-08T01:06:19.814Z,14
2016-06-08T01:06:29.923Z,13.9
2016-06-08T01:06:39.814Z,13.9
2016-06-08T01:06:49.814Z,13.9
2016-06-08T01:06:59.798Z,13.9
2016-06-08T01:07:09.814Z,13.9
2016-06-08T01:07:19.800Z,13.9
2016-06-08T01:07:29.800Z,13.9
2016-06-08T01:07:39.785Z,13.9
2016-06-08T01:07:49.785Z,14
2016-06-08T01:07:59.785Z,13.9
2016-06-08T01:08:09.785Z,13.9
2016-06-08T01:08:19.788Z,13.9
2016-06-08T01:08:29.803Z,13.9
2016-06-08T01:08:39.788Z,13.9
2016-06-08T01:08:49.772Z,13.9
2016-06-08T01:08:59.788Z,13.9
2016-06-08T01:09:09.788Z,13.9
2016-06-08T01:09:19.775Z,13.9
2016-06-08T01:09:29.775Z,13.9
2016-06-08T01:09:39.775Z,13.9
2016-06-08T01:09:49.760Z,13.9
2016-06-08T01:09:59.603Z,13.8
2016-06-08T01:10:09.760Z,13.9
2016-06-08T01:10:19.777Z,13.9
2016-06-08T01:10:29.762Z,13.9
2016-06-08T01:10:39.762Z,13.9
2016-06-08T01:10:49.574Z,13.9
2016-06-08T01:11:00.012Z,13.9
2016-06-08T01:11:09.918Z,13.9
2016-06-08T01:11:20.156Z,13.8
2016-06-08T01:11:29.750Z,13.8
2016-06-08T01:11:40.828Z,13.8
2016-06-08T01:11:49.969Z,13.8
2016-06-08T01:12:00.125Z,13.8
2016-06-08T01:12:09.719Z,13.8
2016-06-08T01:12:19.768Z,13.8
2016-06-08T01:12:29.721Z,13.8
2016-06-08T01:12:39.705Z,13.8
2016-06-08T01:12:49.721Z,13.8
2016-06-08T01:12:59.705Z,13.8
2016-06-08T01:13:09.705Z,13.8
2016-06-08T01:13:19.708Z,13.8
2016-06-08T01:13:29.708Z,13.8
2016-06-08T01:13:39.692Z,13.8
2016-06-08T01:13:49.692Z,13.8
2016-06-08T01:13:59.692Z,13.8
2016-06-08T01:14:09.692Z,13.8
2016-06-08T01:14:19.680Z,13.8
2016-06-08T01:14:29.695Z,13.8
2016-06-08T01:14:39.680Z,13.8
2016-06-08T01:14:49.680Z,13.8
2016-06-08T01:14:59.695Z,13.8
2016-06-08T01:15:09.680Z,13.8
2016-06-08T01:15:19.666Z,13.8
2016-06-08T01:15:29.682Z,13.7
2016-06-08T01:15:39.682Z,13.8
2016-06-08T01:15:49.666Z,13.7
2016-06-08T01:15:59.666Z,13.8
2016-06-08T01:16:09.697Z,13.8
2016-06-08T01:16:19.732Z,13.8
2016-06-08T01:16:29.654Z,13.8
2016-06-08T01:16:39.669Z,13.8
2016-06-08T01:16:49.654Z,13.8
2016-06-08T01:16:59.654Z,13.8
2016-06-08T01:17:09.654Z,13.8
2016-06-08T01:17:19.718Z,13.8
2016-06-08T01:17:29.656Z,13.8
2016-06-08T01:17:39.640Z,13.8
2016-06-08T01:17:49.671Z,13.8
2016-06-08T01:17:59.656Z,13.8
2016-06-08T01:18:09.640Z,13.8
2016-06-08T01:18:19.627Z,13.8
2016-06-08T01:18:29.627Z,13.8
2016-06-08T01:18:39.627Z,13.8
2016-06-08T01:18:49.627Z,13.8
2016-06-08T01:18:59.643Z,13.9
2016-06-08T01:19:09.612Z,13.8
2016-06-08T01:19:19.615Z,13.8
2016-06-08T01:19:29.615Z,13.9
2016-06-08T01:19:39.615Z,13.9
2016-06-08T01:19:49.630Z,13.9
2016-06-08T01:19:59.599Z,13.9
2016-06-08T01:20:09.615Z,13.9
2016-06-08T01:20:19.602Z,13.8
2016-06-08T01:20:29.602Z,13.8
2016-06-08T01:20:39.602Z,13.8
2016-06-08T01:20:49.618Z,13.8
2016-06-08T01:20:59.602Z,13.8
2016-06-08T01:21:09.586Z,13.8
2016-06-08T01:21:19.588Z,13.8
2016-06-08T01:21:29.588Z,13.8
2016-06-08T01:21:39.588Z,13.8
2016-06-08T01:21:49.588Z,13.8
2016-06-08T01:21:59.635Z,13.8
2016-06-08T01:22:09.588Z,13.8
2016-06-08T01:22:19.576Z,13.8
2016-06-08T01:22:29.576Z,13.8
2016-06-08T01:22:39.576Z,13.7
2016-06-08T01:22:49.576Z,13.7
2016-06-08T01:22:59.654Z,13.8
2016-06-08T01:23:09.576Z,13.7
2016-06-08T01:23:19.563Z,13.7
2016-06-08T01:23:29.563Z,13.7
2016-06-08T01:23:39.548Z,13.7
2016-06-08T01:23:49.548Z,13.7
2016-06-08T01:23:59.548Z,13.7
2016-06-08T01:24:09.548Z,13.7
2016-06-08T01:24:19.550Z,13.7
2016-06-08T01:24:29.550Z,13.7
2016-06-08T01:24:39.534Z,13.7
2016-06-08T01:24:49.550Z,13.7
2016-06-08T01:24:59.612Z,13.6
2016-06-08T01:25:09.550Z,13.7
2016-06-08T01:25:19.537Z,13.6
2016-06-08T01:25:29.568Z,13.6
2016-06-08T01:25:39.537Z,13.6
2016-06-08T01:25:49.537Z,13.6
2016-06-08T01:25:59.521Z,13.6
2016-06-08T01:26:09.521Z,13.6
2016-06-08T01:26:19.555Z,13.6
2016-06-08T01:26:29.570Z,13.6
2016-06-08T01:26:39.508Z,13.6
2016-06-08T01:26:49.789Z,13.6
2016-06-08T01:26:59.726Z,13.6
2016-06-08T01:27:09.805Z,13.6
2016-06-08T01:27:20.184Z,13.6
2016-06-08T01:27:29.480Z,13.6
2016-06-08T01:27:39.512Z,13.6
2016-06-08T01:27:49.512Z,13.6
2016-06-08T01:27:59.559Z,13.6
2016-06-08T01:28:09.480Z,13.6
2016-06-08T01:28:19.482Z,13.6
2016-06-08T01:28:29.576Z,13.6
2016-06-08T01:28:41.045Z,13.6
2016-06-08T01:28:53.092Z,13.6
2016-06-08T01:29:01.670Z,13.7
2016-06-08T01:29:11.670Z,13.6
2016-06-08T01:29:21.657Z,13.6
2016-06-08T01:29:31.595Z,13.7
2016-06-08T01:29:41.720Z,13.6
2016-06-08T01:29:51.657Z,13.6
2016-06-08T01:30:01.657Z,13.6
2016-06-08T01:30:11.642Z,13.6
2016-06-08T01:30:21.645Z,13.7
2016-06-08T01:30:31.645Z,13.7
2016-06-08T01:30:41.629Z,13.7
2016-06-08T01:30:51.629Z,13.7
2016-06-08T01:31:01.645Z,13.7
2016-06-08T01:31:11.629Z,13.6
2016-06-08T01:31:21.662Z,13.7
2016-06-08T01:31:31.631Z,13.6
2016-06-08T01:31:41.631Z,13.6
2016-06-08T01:31:51.631Z,13.6
2016-06-08T01:32:01.631Z,13.6
2016-06-08T01:32:11.615Z,13.6
2016-06-08T01:32:21.618Z,13.6
2016-06-08T01:32:31.618Z,13.6
2016-06-08T01:32:41.603Z,13.7
2016-06-08T01:32:51.603Z,13.7
2016-06-08T01:33:01.618Z,13.7
2016-06-08T01:33:11.603Z,13.6
2016-06-08T01:33:21.605Z,13.6
2016-06-08T01:33:31.589Z,13.6
2016-06-08T01:33:41.605Z,13.6
2016-06-08T01:33:51.589Z,13.7
2016-06-08T01:34:01.589Z,13.7
2016-06-08T01:34:11.589Z,13.7
2016-06-08T01:34:21.577Z,13.7
2016-06-08T01:34:31.608Z,13.7
2016-06-08T01:34:41.577Z,13.7
2016-06-08T01:34:51.577Z,13.7
2016-06-08T01:35:01.592Z,13.7
2016-06-08T01:35:11.577Z,13.6
2016-06-08T01:35:21.580Z,13.6
2016-06-08T01:35:31.580Z,13.6
2016-06-08T01:35:41.564Z,13.7
2016-06-08T01:35:51.564Z,13.6
2016-06-08T01:36:01.564Z,13.6
2016-06-08T01:36:11.564Z,13.6
2016-06-08T01:36:21.567Z,13.6
2016-06-08T01:36:31.551Z,13.6
2016-06-08T01:36:41.551Z,13.6
2016-06-08T01:36:51.551Z,13.6
2016-06-08T01:37:01.551Z,13.6
2016-06-08T01:37:11.551Z,13.6
2016-06-08T01:37:21.538Z,13.6
2016-06-08T01:37:31.553Z,13.6
2016-06-08T01:37:41.538Z,13.6
2016-06-08T01:37:51.538Z,13.6
2016-06-08T01:38:01.553Z,13.5
2016-06-08T01:38:11.538Z,13.5
2016-06-08T01:38:21.525Z,13.5
2016-06-08T01:38:31.525Z,13.5
2016-06-08T01:38:41.525Z,13.5
2016-06-08T01:38:51.525Z,13.5
2016-06-08T01:39:01.525Z,13.5
2016-06-08T01:39:11.509Z,13.5
2016-06-08T01:39:21.511Z,13.5
2016-06-08T01:39:31.511Z,13.5
2016-06-08T01:39:41.355Z,13.5
2016-06-08T01:39:51.511Z,13.5
2016-06-08T01:40:01.496Z,13.5
2016-06-08T01:40:11.511Z,13.5
2016-06-08T01:40:21.499Z,13.5
2016-06-08T01:40:31.514Z,13.5
2016-06-08T01:40:41.499Z,13.5
2016-06-08T01:40:51.499Z,13.5
2016-06-08T01:41:01.499Z,13.5
2016-06-08T01:41:11.499Z,13.5
2016-06-08T01:41:21.846Z,13.5
2016-06-08T01:41:32.627Z,13.5
2016-06-08T01:41:41.924Z,13.6
2016-06-08T01:41:51.471Z,13.6
2016-06-08T01:42:01.924Z,13.6
2016-06-08T01:42:11.908Z,13.6
2016-06-08T01:42:21.473Z,13.6
2016-06-08T01:42:31.473Z,13.6
2016-06-08T01:42:41.473Z,13.6
2016-06-08T01:42:51.457Z,13.6
2016-06-08T01:43:01.457Z,13.6
2016-06-08T01:43:11.457Z,13.6
2016-06-08T01:43:21.461Z,13.6
2016-06-08T01:43:31.898Z,13.6
2016-06-08T01:43:41.852Z,13.6
2016-06-08T01:43:52.648Z,13.6
2016-06-08T01:44:03.289Z,13.7
2016-06-08T01:44:15.711Z,13.7
2016-06-08T01:44:26.541Z,13.7
2016-06-08T01:44:39.260Z,13.7
2016-06-08T01:44:52.354Z,13.7
2016-06-08T01:45:02.682Z,13.7
2016-06-08T01:45:12.572Z,13.7
2016-06-08T01:45:22.575Z,13.7
2016-06-08T01:45:32.700Z,13.7
2016-06-08T01:45:42.982Z,13.7
2016-06-08T01:45:52.560Z,13.7
2016-06-08T01:46:02.560Z,13.7
2016-06-08T01:46:12.560Z,13.7
2016-06-08T01:46:23.250Z,13.7
2016-06-08T01:46:32.563Z,13.8
2016-06-08T01:46:43.297Z,13.8
2016-06-08T01:46:52.547Z,13.8
2016-06-08T01:47:02.547Z,13.8
2016-06-08T01:47:12.531Z,13.8
2016-06-08T01:47:22.549Z,13.8
2016-06-08T01:47:32.612Z,13.8
2016-06-08T01:47:42.533Z,13.8
2016-06-08T01:47:52.565Z,13.8
2016-06-08T01:48:02.533Z,13.8
2016-06-08T01:48:12.533Z,13.8
2016-06-08T01:48:23.130Z,13.8
2016-06-08T01:48:32.521Z,13.8
2016-06-08T01:48:42.521Z,13.8
2016-06-08T01:48:52.521Z,13.8
2016-06-08T01:49:02.521Z,13.8
2016-06-08T01:49:12.521Z,13.8
2016-06-08T01:49:22.507Z,13.8
2016-06-08T01:49:32.507Z,13.8
2016-06-08T01:49:42.507Z,13.8
2016-06-08T01:49:52.507Z,13.8
2016-06-08T01:50:02.632Z,13.8
2016-06-08T01:50:12.507Z,13.7
2016-06-08T01:50:22.495Z,13.7
2016-06-08T01:50:32.495Z,13.7
2016-06-08T01:50:42.338Z,13.7
2016-06-08T01:50:52.479Z,13.7
2016-06-08T01:51:02.479Z,13.7
2016-06-08T01:51:12.479Z,13.7
2016-06-08T01:51:22.498Z,13.7
2016-06-08T01:51:32.466Z,13.7
2016-06-08T01:51:42.482Z,13.8
2016-06-08T01:51:52.482Z,13.7
2016-06-08T01:52:02.466Z,13.7
2016-06-08T01:52:12.482Z,13.8
2016-06-08T01:52:22.469Z,13.7
2016-06-08T01:52:32.641Z,13.7
2016-06-08T01:52:42.469Z,13.8
2016-06-08T01:52:52.469Z,13.8
2016-06-08T01:53:02.985Z,13.8
2016-06-08T01:53:12.454Z,13.8
2016-06-08T01:53:22.456Z,13.7
2016-06-08T01:53:32.456Z,13.8
2016-06-08T01:53:42.440Z,13.8
2016-06-08T01:53:53.409Z,13.7
2016-06-08T01:54:04.190Z,13.7
2016-06-08T01:54:14.190Z,13.7
2016-06-08T01:54:24.224Z,13.7
2016-06-08T01:54:34.240Z,13.7
2016-06-08T01:54:44.256Z,13.7
2016-06-08T01:54:54.474Z,13.7
2016-06-08T01:55:04.474Z,13.7
2016-06-08T01:55:14.115Z,13.7
2016-06-08T01:55:24.383Z,13.7
2016-06-08T01:55:34.101Z,13.7
2016-06-08T01:55:44.976Z,13.7
2016-06-08T01:55:54.148Z,13.7
2016-06-08T01:56:04.117Z,13.7
2016-06-08T01:56:13.945Z,13.7
2016-06-08T01:56:24.807Z,13.7
2016-06-08T01:56:34.120Z,13.7
2016-06-08T01:56:44.214Z,13.7
2016-06-08T01:56:53.948Z,13.7
2016-06-08T01:57:04.104Z,13.7
2016-06-08T01:57:14.542Z,13.7
2016-06-08T01:57:24.092Z,13.7
2016-06-08T01:57:34.514Z,13.6
2016-06-08T01:57:44.389Z,13.6
2016-06-08T01:57:54.310Z,13.6
2016-06-08T01:58:04.060Z,13.6
2016-06-08T01:58:14.060Z,13.6
2016-06-08T01:58:24.079Z,13.6
2016-06-08T01:58:34.188Z,13.6
2016-06-08T01:58:44.235Z,13.6
2016-06-08T01:58:54.063Z,13.6
2016-06-08T01:59:04.063Z,13.6
2016-06-08T01:59:14.063Z,13.6
2016-06-08T01:59:24.410Z,13.6
2016-06-08T01:59:34.332Z,13.6
2016-06-08T01:59:44.051Z,13.5
2016-06-08T01:59:54.035Z,13.5
2016-06-08T02:00:04.035Z,13.5
2016-06-08T02:00:14.035Z,13.5
2016-06-08T02:00:24.037Z,13.5
2016-06-08T02:00:34.037Z,13.5
2016-06-08T02:00:44.147Z,13.5
2016-06-08T02:00:54.100Z,13.5
2016-06-08T02:01:04.037Z,13.5
2016-06-08T02:01:14.022Z,13.5
2016-06-08T02:01:24.415Z,13.5
2016-06-08T02:01:34.009Z,13.5
2016-06-08T02:01:44.009Z,13.5
2016-06-08T02:01:54.321Z,13.5
2016-06-08T02:02:04.025Z,13.5
2016-06-08T02:02:14.009Z,13.5
2016-06-08T02:02:24.012Z,13.5
2016-06-08T02:02:34.012Z,13.5
2016-06-08T02:02:43.996Z,13.5
2016-06-08T02:02:54.012Z,13.5
2016-06-08T02:03:03.996Z,13.5
2016-06-08T02:03:14.012Z,13.5
2016-06-08T02:03:23.998Z,13.5
2016-06-08T02:03:33.983Z,13.5
2016-06-08T02:03:44.545Z,13.5
2016-06-08T02:03:53.826Z,13.5
2016-06-08T02:04:03.983Z,13.5
2016-06-08T02:04:14.030Z,13.5
2016-06-08T02:04:24.017Z,13.5
2016-06-08T02:04:34.408Z,13.5
2016-06-08T02:04:44.533Z,13.6
2016-06-08T02:04:54.470Z,13.6
2016-06-08T02:05:05.111Z,13.6
2016-06-08T02:05:14.454Z,13.6
2016-06-08T02:05:24.456Z,13.6
2016-06-08T02:05:34.441Z,13.6
2016-06-08T02:05:44.456Z,13.6
2016-06-08T02:05:54.441Z,13.6
2016-06-08T02:06:04.441Z,13.6
2016-06-08T02:06:14.456Z,13.6
2016-06-08T02:06:24.444Z,13.6
2016-06-08T02:06:34.444Z,13.6
2016-06-08T02:06:44.428Z,13.6
2016-06-08T02:06:54.428Z,13.6
2016-06-08T02:07:04.288Z,13.6
2016-06-08T02:07:14.428Z,13.6
2016-06-08T02:07:24.431Z,13.6
2016-06-08T02:07:34.416Z,13.5
2016-06-08T02:07:44.416Z,13.5
2016-06-08T02:07:54.431Z,13.5
2016-06-08T02:08:04.416Z,13.5
2016-06-08T02:08:14.416Z,13.5
2016-06-08T02:08:24.419Z,13.5
2016-06-08T02:08:34.403Z,13.5
2016-06-08T02:08:44.403Z,13.5
2016-06-08T02:08:54.403Z,13.5
2016-06-08T02:09:04.403Z,13.5
2016-06-08T02:09:14.403Z,13.5
2016-06-08T02:09:24.389Z,13.5
2016-06-08T02:09:34.405Z,13.5
2016-06-08T02:09:44.389Z,13.5
2016-06-08T02:09:54.389Z,13.5
2016-06-08T02:10:04.389Z,13.5
2016-06-08T02:10:14.374Z,13.5
2016-06-08T02:10:24.533Z,13.5
2016-06-08T02:10:34.377Z,13.5
2016-06-08T02:10:44.752Z,13.5
2016-06-08T02:10:54.611Z,13.5
2016-06-08T02:11:04.283Z,13.5
2016-06-08T02:11:14.377Z,13.5
2016-06-08T02:11:24.457Z,13.5
2016-06-08T02:11:34.441Z,13.5
2016-06-08T02:11:44.629Z,13.5
2016-06-08T02:11:54.207Z,13.5
2016-06-08T02:12:05.129Z,13.5
2016-06-08T02:12:14.207Z,13.5
2016-06-08T02:12:24.226Z,13.5
2016-06-08T02:12:34.945Z,13.5
2016-06-08T02:12:44.211Z,13.6
2016-06-08T02:12:54.351Z,13.6
2016-06-08T02:13:04.398Z,13.6
2016-06-08T02:13:14.398Z,13.6
2016-06-08T02:13:24.400Z,13.6
2016-06-08T02:13:34.338Z,13.6
2016-06-08T02:13:44.385Z,13.5